createdAt,value
2022-08-04T00:01:24.721Z,2.47
2022-08-04T00:03:58.049Z,2.70
2022-08-04T00:06:34.809Z,2.80
2022-08-04T00:09:08.860Z,2.70
2022-08-04T00:11:38.012Z,2.58
2022-08-04T00:14:12.788Z,2.30
2022-08-04T00:16:44.067Z,2.50
2022-08-04T00:19:14.044Z,3.05
2022-08-04T00:21:48.883Z,2.47
2022-08-04T00:24:18.829Z,2.72
2022-08-04T00:26:47.177Z,2.20
2022-08-04T00:29:16.539Z,2.95
2022-08-04T00:31:56.226Z,2.90
2022-08-04T00:34:26.773Z,2.95
2022-08-04T00:36:56.190Z,2.70
2022-08-04T00:39:24.857Z,2.80
2022-08-04T00:42:12.011Z,2.70
2022-08-04T00:44:51.786Z,3.10
2022-08-04T00:47:40.906Z,3.30
2022-08-04T00:50:13.698Z,3.28
2022-08-04T00:52:54.569Z,3.30
2022-08-04T00:55:36.980Z,3.03
2022-08-04T00:58:29.229Z,3.30
2022-08-04T01:01:02.208Z,3.05
2022-08-04T01:03:49.247Z,2.90
2022-08-04T01:06:35.606Z,3.20
2022-08-04T01:09:21.660Z,3.13
2022-08-04T01:12:25.152Z,3.30
2022-08-04T01:15:05.839Z,3.00
2022-08-04T01:17:49.987Z,2.88
2022-08-04T01:20:25.560Z,2.83
2022-08-04T01:23:35.606Z,2.90
2022-08-04T01:26:43.692Z,3.30
2022-08-04T01:29:24.856Z,2.50
2022-08-04T01:32:02.646Z,3.17
2022-08-04T01:34:32.701Z,2.70
2022-08-04T01:37:05.405Z,2.90
2022-08-04T01:39:42.447Z,3.00
2022-08-04T01:42:12.670Z,3.00
2022-08-04T01:45:03.540Z,2.63
2022-08-04T01:47:32.012Z,2.60
2022-08-04T01:50:06.351Z,2.77
2022-08-04T01:52:37.245Z,2.70
2022-08-04T01:55:07.344Z,2.65
2022-08-04T01:57:37.627Z,2.35
2022-08-04T02:00:10.182Z,2.60
2022-08-04T02:02:38.271Z,2.90
2022-08-04T02:05:07.455Z,2.70
2022-08-04T02:07:48.619Z,2.63
2022-08-04T02:10:28.135Z,2.90
2022-08-04T02:13:05.082Z,2.78
2022-08-04T02:15:43.785Z,2.78
2022-08-04T02:18:19.828Z,2.80
2022-08-04T02:20:52.885Z,2.60
2022-08-04T02:23:29.863Z,2.90
2022-08-04T02:25:59.483Z,2.63
2022-08-04T02:28:35.070Z,2.50
2022-08-04T02:31:18.669Z,2.80
2022-08-04T02:33:53.735Z,3.28
2022-08-04T02:36:25.237Z,3.20
2022-08-04T02:38:59.775Z,2.70
2022-08-04T02:41:29.495Z,2.78
2022-08-04T02:43:59.298Z,3.00
2022-08-04T02:46:29.413Z,2.97
2022-08-04T02:48:57.934Z,3.20
2022-08-04T02:51:29.104Z,3.10
2022-08-04T02:53:59.285Z,3.00
2022-08-04T02:56:31.086Z,3.20
2022-08-04T02:59:01.925Z,3.40
2022-08-04T03:01:32.277Z,3.17
2022-08-04T03:04:24.315Z,2.70
2022-08-04T03:07:25.166Z,2.90
2022-08-04T03:10:31.804Z,2.95
2022-08-04T03:13:37.897Z,3.10
2022-08-04T03:16:38.749Z,3.08
2022-08-04T03:19:40.818Z,2.88
2022-08-04T03:23:11.479Z,3.45
2022-08-04T03:26:03.858Z,3.10
2022-08-04T03:29:09.379Z,3.80
2022-08-04T03:32:13.909Z,3.40
2022-08-04T03:35:09.627Z,3.25
2022-08-04T03:38:09.912Z,2.90
2022-08-04T03:40:56.770Z,3.40
2022-08-04T03:43:56.950Z,3.30
2022-08-04T03:46:49.506Z,3.20
2022-08-04T03:49:53.148Z,3.40
2022-08-04T03:53:09.615Z,3.95
2022-08-04T03:55:47.654Z,3.10
2022-08-04T03:58:40.324Z,3.92
2022-08-04T04:01:24.354Z,3.30
2022-08-04T04:04:32.722Z,3.30
2022-08-04T04:07:55.869Z,3.50
2022-08-04T04:11:07.839Z,3.90
2022-08-04T04:14:03.989Z,3.30
2022-08-04T04:16:46.032Z,3.00
2022-08-04T04:19:29.825Z,2.90
2022-08-04T04:22:24.916Z,2.88
2022-08-04T04:25:18.771Z,3.13
2022-08-04T04:28:45.970Z,3.20
2022-08-04T04:31:12.870Z,3.05
2022-08-04T04:33:54.665Z,3.40
2022-08-04T04:36:36.503Z,3.40
2022-08-04T04:39:15.195Z,3.17
2022-08-04T04:42:23.346Z,3.20
2022-08-04T04:45:28.121Z,3.35
2022-08-04T04:48:08.489Z,2.80
2022-08-04T04:50:48.417Z,3.05
2022-08-04T04:53:25.272Z,3.33
2022-08-04T04:55:58.584Z,3.33
2022-08-04T04:58:28.137Z,2.90
2022-08-04T05:01:13.976Z,2.97
2022-08-04T05:03:56.826Z,3.80
2022-08-04T05:06:54.155Z,3.80
2022-08-04T05:09:38.671Z,2.78
2022-08-04T05:14:31.884Z,2.80
2022-08-04T05:15:31.427Z,3.30
2022-08-04T05:18:03.760Z,3.10
2022-08-04T05:20:39.392Z,2.95
2022-08-04T05:23:14.868Z,2.90
2022-08-04T05:25:58.816Z,2.80
2022-08-04T05:28:34.149Z,3.03
2022-08-04T05:31:06.488Z,2.80
2022-08-04T05:33:41.178Z,2.70
2022-08-04T05:36:29.423Z,3.10
2022-08-04T05:39:07.077Z,2.60
2022-08-04T05:41:45.485Z,2.78
2022-08-04T05:44:16.249Z,2.67
2022-08-04T05:46:54.094Z,2.42
2022-08-04T05:49:25.812Z,2.60
2022-08-04T05:51:55.086Z,2.47
2022-08-04T05:54:24.022Z,2.47
2022-08-04T05:56:55.020Z,2.70
2022-08-04T05:59:25.628Z,2.33
2022-08-04T06:01:57.656Z,2.80
2022-08-04T06:04:32.808Z,2.55
2022-08-04T06:07:00.876Z,2.33
2022-08-04T06:09:29.285Z,2.15
2022-08-04T06:12:04.171Z,2.50
2022-08-04T06:14:38.342Z,2.70
2022-08-04T06:18:32.067Z,2.10
2022-08-04T06:20:18.952Z,2.20
2022-08-04T06:22:51.535Z,2.80
2022-08-04T06:25:24.829Z,2.15
2022-08-04T06:27:53.641Z,2.17
2022-08-04T06:30:26.233Z,2.50
2022-08-04T06:33:04.203Z,2.07
2022-08-04T06:35:35.317Z,2.20
2022-08-04T06:38:04.138Z,1.92
2022-08-04T06:40:34.390Z,2.10
2022-08-04T06:43:03.861Z,2.47
2022-08-04T06:45:35.233Z,2.25
2022-08-04T06:48:05.916Z,2.30
2022-08-04T06:51:24.726Z,1.95
2022-08-04T06:53:26.102Z,2.00
2022-08-04T06:55:55.153Z,2.20
2022-08-04T06:58:24.395Z,2.03
2022-08-04T07:00:52.964Z,2.03
2022-08-04T07:03:21.994Z,2.40
2022-08-04T07:05:53.043Z,2.20
2022-08-04T07:08:21.783Z,2.30
2022-08-04T07:10:50.400Z,2.47
2022-08-04T07:13:19.190Z,1.83
2022-08-04T07:15:48.561Z,2.20
2022-08-04T07:18:17.009Z,2.07
2022-08-04T07:20:46.387Z,2.10
2022-08-04T07:23:19.790Z,1.73
2022-08-04T07:26:12.428Z,1.70
2022-08-04T07:28:41.985Z,1.83
2022-08-04T07:31:34.572Z,2.00
2022-08-04T07:34:21.001Z,1.55
2022-08-04T07:36:53.037Z,2.00
2022-08-04T07:39:28.417Z,2.30
2022-08-04T07:41:59.185Z,1.73
2022-08-04T07:44:31.092Z,1.80
2022-08-04T07:46:59.806Z,1.50
2022-08-04T07:49:57.242Z,1.50
2022-08-04T07:52:16.544Z,1.80
2022-08-04T07:54:46.643Z,1.60
2022-08-04T07:57:19.264Z,1.90
2022-08-04T08:00:03.651Z,2.00
2022-08-04T08:02:32.076Z,1.80
2022-08-04T08:05:00.451Z,1.70
2022-08-04T08:07:28.823Z,2.10
2022-08-04T08:09:58.273Z,2.20
2022-08-04T08:12:38.656Z,1.80
2022-08-04T08:15:15.922Z,2.10
2022-08-04T08:17:58.779Z,1.70
2022-08-04T08:20:30.537Z,1.80
2022-08-04T08:22:59.076Z,1.70
2022-08-04T08:25:28.850Z,1.95
2022-08-04T08:27:56.968Z,1.83
2022-08-04T08:30:25.277Z,1.70
2022-08-04T08:33:02.410Z,2.08
2022-08-04T08:35:39.686Z,1.80
2022-08-04T08:38:16.907Z,1.57
2022-08-04T08:40:52.048Z,1.70
2022-08-04T08:44:05.699Z,1.80
2022-08-04T08:46:52.755Z,1.90
2022-08-04T08:50:03.180Z,1.98
2022-08-04T08:53:01.882Z,2.00
2022-08-04T08:55:43.858Z,2.30
2022-08-04T08:58:39.821Z,1.90
2022-08-04T09:01:16.689Z,1.70
2022-08-04T09:04:02.384Z,1.40
2022-08-04T09:06:43.737Z,1.90
2022-08-04T09:09:31.301Z,1.83
2022-08-04T09:12:10.347Z,1.70
2022-08-04T09:14:48.473Z,1.40
2022-08-04T09:17:24.121Z,1.30
2022-08-04T09:19:58.605Z,1.60
2022-08-04T09:22:33.202Z,1.80
2022-08-04T09:25:04.760Z,1.77
2022-08-04T09:27:39.725Z,1.40
2022-08-04T09:30:11.938Z,1.77
2022-08-04T09:32:48.514Z,2.00
2022-08-04T09:35:27.412Z,1.58
2022-08-04T09:38:03.719Z,1.48
2022-08-04T09:40:53.916Z,1.50
2022-08-04T09:43:57.071Z,1.50
2022-08-04T09:46:27.719Z,1.43
2022-08-04T09:49:03.404Z,1.30
2022-08-04T09:51:57.875Z,1.20
2022-08-04T09:54:34.470Z,1.70
2022-08-04T09:57:14.388Z,1.40
2022-08-04T09:59:49.752Z,1.33
2022-08-04T10:02:23.105Z,1.60
2022-08-04T10:04:54.374Z,1.30
2022-08-04T10:07:59.711Z,1.20
2022-08-04T10:10:53.413Z,1.70
2022-08-04T10:13:31.114Z,1.30
2022-08-04T10:16:12.737Z,1.52
2022-08-04T10:18:56.313Z,1.33
2022-08-04T10:21:32.852Z,1.60
2022-08-04T10:24:14.795Z,1.73
2022-08-04T10:26:53.226Z,1.33
2022-08-04T10:29:29.481Z,1.30
2022-08-04T10:32:04.321Z,1.30
2022-08-04T10:34:42.698Z,1.40
2022-08-04T10:37:21.231Z,1.00
2022-08-04T10:40:17.288Z,1.27
2022-08-04T10:43:01.493Z,1.08
2022-08-04T10:45:37.716Z,1.10
2022-08-04T10:48:13.628Z,1.35
2022-08-04T10:51:03.205Z,1.20
2022-08-04T10:53:32.958Z,1.10
2022-08-04T10:56:07.226Z,1.30
2022-08-04T10:58:48.689Z,1.30
2022-08-04T11:01:50.666Z,1.30
2022-08-04T11:04:27.103Z,1.40
2022-08-04T11:06:59.638Z,1.30
2022-08-04T11:09:29.921Z,1.20
2022-08-04T11:12:03.938Z,1.10
2022-08-04T11:14:38.863Z,1.30
2022-08-04T11:17:12.781Z,1.10
2022-08-04T11:19:53.330Z,1.27
2022-08-04T11:22:27.125Z,1.30
2022-08-04T11:25:00.656Z,1.50
2022-08-04T11:27:35.376Z,1.30
2022-08-04T11:30:08.793Z,1.20
2022-08-04T11:32:44.084Z,1.20
2022-08-04T11:35:21.835Z,1.63
2022-08-04T11:38:02.374Z,1.38
2022-08-04T11:40:38.143Z,1.40
2022-08-04T11:43:10.784Z,1.38
2022-08-04T11:45:43.660Z,1.40
2022-08-04T11:48:16.965Z,1.30
2022-08-04T11:50:53.847Z,1.45
2022-08-04T11:53:26.394Z,1.50
2022-08-04T11:56:09.839Z,1.27
2022-08-04T11:58:39.643Z,1.10
2022-08-04T12:01:19.969Z,1.30
2022-08-04T12:04:04.017Z,1.20
2022-08-04T12:06:40.083Z,1.40
2022-08-04T12:09:22.809Z,1.45
2022-08-04T12:12:01.458Z,1.10
2022-08-04T12:14:44.407Z,1.20
2022-08-04T12:17:16.804Z,2.05
2022-08-04T12:20:03.458Z,1.20
2022-08-04T12:22:41.030Z,1.20
2022-08-04T12:25:14.976Z,1.50
2022-08-04T12:27:48.614Z,1.10
2022-08-04T12:31:00.485Z,1.20
2022-08-04T12:33:17.999Z,1.08
2022-08-04T12:35:58.134Z,1.40
2022-08-04T12:38:48.188Z,1.20
2022-08-04T12:41:24.741Z,1.25
2022-08-04T12:43:55.405Z,1.35
2022-08-04T12:46:25.448Z,1.50
2022-08-04T12:48:54.433Z,1.30
2022-08-04T12:51:55.972Z,1.20
2022-08-04T12:54:12.578Z,1.00
2022-08-04T12:56:43.402Z,1.40
2022-08-04T12:59:14.113Z,1.40
2022-08-04T13:02:09.505Z,1.20
2022-08-04T13:04:42.740Z,1.30
2022-08-04T13:07:22.075Z,1.20
2022-08-04T13:09:51.213Z,1.30
2022-08-04T13:12:31.837Z,1.50
2022-08-04T13:15:10.417Z,1.10
2022-08-04T13:17:51.972Z,1.20
2022-08-04T13:20:26.782Z,1.20
2022-08-04T13:23:01.587Z,1.30
2022-08-04T13:26:44.708Z,1.20
2022-08-04T13:28:23.885Z,1.33
2022-08-04T13:30:56.848Z,1.30
2022-08-04T13:33:29.141Z,1.10
2022-08-04T13:35:58.614Z,1.42
2022-08-04T13:38:28.009Z,1.10
2022-08-04T13:40:58.517Z,1.20
2022-08-04T13:44:16.860Z,1.30
2022-08-04T13:46:28.075Z,1.60
2022-08-04T13:49:25.996Z,1.17
2022-08-04T13:51:57.563Z,1.30
2022-08-04T13:54:30.528Z,1.30
2022-08-04T13:57:01.783Z,1.48
2022-08-04T13:59:37.604Z,1.50
2022-08-04T14:02:12.833Z,1.42
2022-08-04T14:04:51.028Z,1.30
2022-08-04T14:07:21.376Z,1.50
2022-08-04T14:10:02.700Z,1.10
2022-08-04T14:12:46.405Z,1.30
2022-08-04T14:16:01.721Z,1.40
2022-08-04T14:18:29.658Z,1.00
2022-08-04T14:21:09.386Z,1.30
2022-08-04T14:23:47.760Z,1.10
2022-08-04T14:26:32.384Z,1.20
2022-08-04T14:29:27.455Z,1.17
2022-08-04T14:32:05.522Z,1.20
2022-08-04T14:34:42.681Z,1.27
2022-08-04T14:37:18.164Z,1.30
2022-08-04T14:40:08.406Z,1.30
2022-08-04T14:42:55.024Z,1.10
2022-08-04T14:45:32.407Z,1.20
2022-08-04T14:48:02.791Z,1.20
2022-08-04T14:50:39.403Z,1.60
2022-08-04T14:53:10.845Z,1.00
2022-08-04T14:55:41.042Z,1.20
2022-08-04T14:58:37.967Z,1.17
2022-08-04T15:01:10.392Z,1.40
2022-08-04T15:03:52.410Z,1.15
2022-08-04T15:06:23.844Z,1.20
2022-08-04T15:08:52.661Z,1.45
2022-08-04T15:11:23.495Z,1.23
2022-08-04T15:13:52.442Z,1.70
2022-08-04T15:16:20.663Z,1.00
2022-08-04T15:18:51.008Z,1.25
2022-08-04T15:21:22.251Z,1.10
2022-08-04T15:23:50.753Z,1.05
2022-08-04T15:26:24.741Z,1.40
2022-08-04T15:28:57.215Z,1.30
2022-08-04T15:32:06.047Z,1.10
2022-08-04T15:34:15.796Z,1.10
2022-08-04T15:36:56.457Z,1.00
2022-08-04T15:39:36.854Z,1.20
2022-08-04T15:42:20.858Z,1.20
2022-08-04T15:46:02.383Z,1.30
2022-08-04T15:48:35.366Z,1.20
2022-08-04T15:51:15.239Z,1.20
2022-08-04T15:54:27.427Z,1.50
2022-08-04T15:57:01.346Z,1.30
2022-08-04T16:00:02.804Z,1.30
2022-08-04T16:02:49.426Z,1.23
2022-08-04T16:05:39.142Z,1.13
2022-08-04T16:08:16.649Z,1.60
2022-08-04T16:10:49.844Z,1.30
2022-08-04T16:13:20.473Z,1.10
2022-08-04T16:15:51.108Z,1.20
2022-08-04T16:18:43.725Z,1.10
2022-08-04T16:21:25.980Z,1.20
2022-08-04T16:24:18.669Z,1.23
2022-08-04T16:26:54.798Z,1.20
2022-08-04T16:29:34.127Z,1.30
2022-08-04T16:32:16.633Z,1.17
2022-08-04T16:34:54.665Z,1.10
2022-08-04T16:37:26.499Z,1.35
2022-08-04T16:40:33.357Z,1.20
2022-08-04T16:43:06.162Z,1.20
2022-08-04T16:45:44.038Z,1.40
2022-08-04T16:48:12.783Z,1.30
2022-08-04T16:50:56.160Z,1.27
2022-08-04T16:53:57.929Z,1.50
2022-08-04T16:56:18.880Z,1.27
2022-08-04T16:58:53.097Z,1.63
2022-08-04T17:01:50.386Z,1.50
2022-08-04T17:04:18.602Z,1.40
2022-08-04T17:06:47.503Z,1.40
2022-08-04T17:09:18.997Z,1.60
2022-08-04T17:11:49.333Z,1.20
2022-08-04T17:14:22.959Z,1.40
2022-08-04T17:16:54.449Z,1.60
2022-08-04T17:19:25.999Z,1.30
2022-08-04T17:22:04.949Z,1.20
2022-08-04T17:24:34.816Z,1.20
2022-08-04T17:28:09.209Z,1.40
2022-08-04T17:29:56.654Z,1.70
2022-08-04T17:32:25.153Z,1.30
2022-08-04T17:34:54.964Z,1.60
2022-08-04T17:37:39.634Z,1.50
2022-08-04T17:40:11.839Z,1.60
2022-08-04T17:42:41.742Z,1.42
2022-08-04T17:48:09.387Z,1.40
2022-08-04T17:50:43.733Z,1.30
2022-08-04T17:53:13.167Z,1.30
2022-08-04T17:55:43.762Z,1.52
2022-08-04T17:58:20.834Z,1.30
2022-08-04T18:03:58.349Z,1.45
2022-08-04T18:06:43.724Z,1.20
2022-08-04T18:09:22.953Z,1.50
2022-08-04T18:12:18.429Z,1.40
2022-08-04T18:14:56.788Z,1.38
2022-08-04T18:18:21.134Z,1.58
2022-08-04T18:20:27.819Z,1.30
2022-08-04T18:22:56.638Z,1.50
2022-08-04T18:25:51.568Z,1.35
2022-08-04T18:28:20.775Z,1.35
2022-08-04T18:30:57.473Z,1.60
2022-08-04T18:33:37.794Z,1.50
2022-08-04T18:36:34.557Z,1.70
2022-08-04T18:39:12.111Z,1.50
2022-08-04T18:42:03.863Z,1.77
2022-08-04T18:44:31.032Z,1.95
2022-08-04T18:47:22.320Z,1.98
2022-08-04T18:50:58.737Z,1.70
2022-08-04T18:52:45.049Z,1.50
2022-08-04T18:58:07.155Z,1.88
2022-08-04T19:00:45.054Z,1.80
2022-08-04T19:03:22.843Z,1.90
2022-08-04T19:05:52.551Z,1.80
2022-08-04T19:08:33.014Z,2.08
2022-08-04T19:11:38.447Z,1.70
2022-08-04T19:13:54.735Z,1.90
2022-08-04T19:16:28.908Z,2.05
2022-08-04T19:18:58.554Z,2.15
2022-08-04T19:22:01.116Z,1.60
2022-08-04T19:24:32.723Z,1.80
2022-08-04T19:27:08.308Z,1.60
2022-08-04T19:29:41.445Z,2.00
2022-08-04T19:32:15.113Z,2.30
2022-08-04T19:35:11.062Z,1.85
2022-08-04T19:37:58.448Z,2.00
2022-08-04T19:40:33.548Z,1.90
2022-08-04T19:43:14.262Z,2.00
2022-08-04T19:45:44.972Z,1.75
2022-08-04T19:48:18.565Z,1.90
2022-08-04T19:50:51.515Z,2.20
2022-08-04T19:53:37.029Z,1.90
2022-08-04T19:56:06.556Z,1.88
2022-08-04T19:58:38.475Z,1.65
2022-08-04T20:01:31.384Z,2.10
2022-08-04T20:04:08.520Z,1.80
2022-08-04T20:06:39.982Z,2.20
2022-08-04T20:09:26.062Z,1.80
2022-08-04T20:11:56.065Z,2.22
2022-08-04T20:14:32.194Z,1.67
2022-08-04T20:17:02.643Z,1.80
2022-08-04T20:19:30.808Z,2.10
2022-08-04T20:22:00.210Z,2.10
2022-08-04T20:24:38.679Z,1.77
2022-08-04T20:27:18.988Z,1.77
2022-08-04T20:29:50.323Z,2.05
2022-08-04T20:32:20.190Z,1.90
2022-08-04T20:34:55.195Z,2.30
2022-08-04T20:37:55.045Z,2.30
2022-08-04T20:40:14.631Z,2.15
2022-08-04T20:42:44.981Z,1.73
2022-08-04T20:45:16.229Z,1.70
2022-08-04T20:47:53.195Z,1.80
2022-08-04T20:50:29.690Z,2.00
2022-08-04T20:53:00.090Z,2.20
2022-08-04T20:55:29.465Z,1.90
2022-08-04T20:58:03.384Z,2.10
2022-08-04T21:00:31.973Z,2.40
2022-08-04T21:03:00.233Z,2.00
2022-08-04T21:05:28.194Z,2.30
2022-08-04T21:07:57.360Z,2.28
2022-08-04T21:10:27.491Z,2.40
2022-08-04T21:12:58.744Z,2.07
2022-08-04T21:15:57.767Z,2.22
2022-08-04T21:18:17.142Z,1.90
2022-08-04T21:20:48.207Z,2.00
2022-08-04T21:23:16.622Z,1.90
2022-08-04T21:25:50.772Z,2.00
2022-08-04T21:28:20.052Z,2.10
2022-08-04T21:30:53.977Z,2.20
2022-08-04T21:33:49.921Z,2.10
2022-08-04T21:36:19.788Z,2.50
2022-08-04T21:38:51.733Z,1.90
2022-08-04T21:41:24.407Z,2.22
2022-08-04T21:43:54.829Z,2.00
2022-08-04T21:46:23.359Z,1.85
2022-08-04T21:48:51.458Z,1.85
2022-08-04T21:51:55.713Z,1.70
2022-08-04T21:54:14.935Z,2.50
2022-08-04T21:56:51.087Z,2.28
2022-08-04T21:59:23.718Z,2.30
2022-08-04T22:02:00.171Z,1.90
2022-08-04T22:04:28.701Z,2.28
2022-08-04T22:06:56.676Z,2.13
2022-08-04T22:09:24.589Z,2.10
2022-08-04T22:11:58.225Z,2.30
2022-08-04T22:14:34.490Z,2.60
2022-08-04T22:17:02.774Z,2.40
2022-08-04T22:19:50.249Z,2.35
2022-08-04T22:22:24.775Z,2.55
2022-08-04T22:24:58.976Z,2.45
2022-08-04T22:27:47.366Z,2.60
2022-08-04T22:30:18.034Z,3.00
2022-08-04T22:32:46.729Z,2.20
2022-08-04T22:35:43.017Z,2.90
2022-08-04T22:38:24.232Z,2.83
2022-08-04T22:40:58.120Z,2.95
2022-08-04T22:43:33.290Z,3.03
2022-08-04T22:46:03.507Z,2.97
2022-08-04T22:48:32.518Z,2.97
2022-08-04T22:51:00.698Z,2.92
2022-08-04T22:53:28.821Z,2.90
2022-08-04T22:56:06.694Z,2.60
2022-08-04T22:58:40.209Z,2.60
2022-08-04T23:01:09.075Z,2.40
2022-08-04T23:03:38.613Z,2.70
2022-08-04T23:06:10.824Z,2.40
2022-08-04T23:08:43.252Z,2.30
2022-08-04T23:11:15.490Z,2.60
2022-08-04T23:13:45.541Z,3.00
2022-08-04T23:16:15.611Z,2.50
2022-08-04T23:18:49.058Z,2.25
2022-08-04T23:21:17.450Z,2.38
2022-08-04T23:24:00.818Z,2.67
2022-08-04T23:26:31.771Z,2.50
2022-08-04T23:29:03.840Z,2.70
2022-08-04T23:31:40.825Z,3.35
2022-08-04T23:34:12.230Z,2.60
2022-08-04T23:36:42.378Z,3.17
2022-08-04T23:39:10.889Z,3.28
2022-08-04T23:41:53.738Z,3.10
2022-08-04T23:44:28.257Z,3.00
2022-08-04T23:47:00.969Z,3.15
2022-08-04T23:49:44.197Z,2.80
2022-08-04T23:52:23.215Z,3.07
2022-08-04T23:54:58.277Z,2.93
2022-08-04T23:57:30.958Z,3.10
